createdAt,value
2023-04-07T00:00:18.440Z,13.13
2023-04-07T00:01:20.174Z,13.68
2023-04-07T00:02:22.526Z,12.95
2023-04-07T00:03:24.656Z,17.98
2023-04-07T00:04:27.041Z,14.13
2023-04-07T00:05:28.954Z,14.27
2023-04-07T00:06:30.828Z,14.82
2023-04-07T00:07:33.866Z,14.82
2023-04-07T00:08:39.523Z,13.57
2023-04-07T00:09:41.599Z,11.63
2023-04-07T00:10:43.371Z,12.10
2023-04-07T00:11:45.261Z,12.00
2023-04-07T00:12:46.999Z,12.68
2023-04-07T00:13:48.781Z,14.02
2023-04-07T00:14:50.829Z,12.30
2023-04-07T00:15:52.761Z,14.27
2023-04-07T00:16:54.531Z,11.57
2023-04-07T00:17:56.610Z,13.30
2023-04-07T00:18:58.354Z,12.95
2023-04-07T00:20:00.148Z,14.32
2023-04-07T00:21:01.880Z,12.77
2023-04-07T00:22:03.859Z,14.00
2023-04-07T00:23:05.713Z,12.05
2023-04-07T00:24:08.047Z,12.90
2023-04-07T00:25:10.175Z,13.50
2023-04-07T00:26:11.906Z,11.23
2023-04-07T00:27:13.697Z,11.32
2023-04-07T00:28:15.709Z,11.25
2023-04-07T00:29:17.477Z,11.65
2023-04-07T00:30:19.233Z,15.10
2023-04-07T00:31:21.104Z,12.57
2023-04-07T00:32:23.105Z,11.05
2023-04-07T00:33:24.950Z,13.85
2023-04-07T00:34:26.645Z,12.18
2023-04-07T00:35:28.522Z,12.07
2023-04-07T00:36:30.336Z,12.68
2023-04-07T00:37:32.189Z,11.93
2023-04-07T00:38:33.974Z,14.23
2023-04-07T00:39:35.888Z,11.32
2023-04-07T00:40:38.027Z,13.80
2023-04-07T00:41:39.820Z,13.70
2023-04-07T00:42:41.553Z,10.82
2023-04-07T00:43:43.516Z,12.90
2023-04-07T00:44:45.297Z,11.38
2023-04-07T00:45:47.121Z,11.13
2023-04-07T00:46:49.266Z,11.48
2023-04-07T00:47:51.089Z,12.45
2023-04-07T00:48:53.030Z,14.70
2023-04-07T00:49:54.727Z,11.50
2023-04-07T00:50:56.750Z,10.82
2023-04-07T00:51:58.840Z,13.93
2023-04-07T00:53:02.534Z,12.77
2023-04-07T00:54:04.452Z,10.93
2023-04-07T00:55:06.517Z,12.80
2023-04-07T00:56:08.465Z,12.07
2023-04-07T00:57:10.278Z,12.88
2023-04-07T00:58:12.068Z,11.23
2023-04-07T00:59:13.867Z,12.77
2023-04-07T01:00:15.958Z,14.30
2023-04-07T01:01:23.552Z,11.98
2023-04-07T01:02:28.747Z,14.05
2023-04-07T01:03:46.942Z,15.45
2023-04-07T01:04:54.899Z,11.27
2023-04-07T01:06:00.283Z,13.25
2023-04-07T01:07:05.278Z,13.82
2023-04-07T01:08:12.408Z,10.77
2023-04-07T01:09:18.569Z,11.32
2023-04-07T01:10:41.161Z,13.32
2023-04-07T01:11:53.450Z,12.98
2023-04-07T01:13:01.802Z,12.30
2023-04-07T01:14:04.040Z,14.02
2023-04-07T01:15:09.656Z,13.23
2023-04-07T01:16:13.623Z,10.13
2023-04-07T01:17:15.873Z,13.50
2023-04-07T01:18:22.471Z,11.77
2023-04-07T01:19:37.005Z,11.80
2023-04-07T01:20:39.024Z,14.25
2023-04-07T01:21:43.561Z,13.43
2023-04-07T01:22:47.767Z,13.32
2023-04-07T01:23:49.647Z,13.40
2023-04-07T01:25:11.598Z,13.52
2023-04-07T01:26:20.780Z,13.77
2023-04-07T01:27:32.518Z,12.30
2023-04-07T01:29:42.582Z,15.90
2023-04-07T01:30:44.773Z,12.85
2023-04-07T01:31:48.111Z,12.85
2023-04-07T01:32:53.824Z,16.83
2023-04-07T01:33:56.724Z,12.30
2023-04-07T01:34:59.367Z,13.18
2023-04-07T01:36:01.843Z,11.55
2023-04-07T01:37:04.210Z,13.35
2023-04-07T01:38:06.837Z,11.82
2023-04-07T01:39:09.199Z,13.73
2023-04-07T01:40:12.049Z,12.80
2023-04-07T01:41:15.239Z,13.80
2023-04-07T01:42:17.652Z,13.50
2023-04-07T01:43:19.439Z,11.73
2023-04-07T01:44:21.535Z,11.55
2023-04-07T01:45:23.687Z,13.05
2023-04-07T01:46:25.704Z,12.35
2023-04-07T01:47:31.298Z,12.40
2023-04-07T01:48:34.769Z,13.27
2023-04-07T01:49:37.229Z,13.05
2023-04-07T01:50:39.536Z,12.73
2023-04-07T01:51:42.179Z,11.20
2023-04-07T01:52:43.994Z,12.27
2023-04-07T01:53:49.307Z,11.02
2023-04-07T01:54:51.247Z,12.05
2023-04-07T01:55:53.979Z,14.38
2023-04-07T01:56:56.758Z,14.80
2023-04-07T01:57:58.601Z,15.43
2023-04-07T01:59:00.437Z,16.33
2023-04-07T02:00:02.452Z,15.27
2023-04-07T02:01:04.395Z,15.23
2023-04-07T02:02:06.275Z,13.18
2023-04-07T02:03:23.877Z,14.95
2023-04-07T02:04:28.424Z,13.07
2023-04-07T02:05:31.278Z,12.57
2023-04-07T02:06:35.263Z,13.32
2023-04-07T02:07:43.092Z,13.52
2023-04-07T02:09:00.845Z,13.20
2023-04-07T02:10:03.152Z,15.90
2023-04-07T02:11:08.128Z,14.07
2023-04-07T02:12:12.119Z,13.63
2023-04-07T02:13:15.709Z,12.93
2023-04-07T02:14:18.076Z,12.82
2023-04-07T02:15:20.172Z,12.40
2023-04-07T02:16:22.732Z,15.05
2023-04-07T02:17:25.869Z,14.70
2023-04-07T02:18:28.436Z,14.48
2023-04-07T02:19:30.825Z,13.68
2023-04-07T02:20:32.995Z,11.73
2023-04-07T02:21:35.364Z,11.88
2023-04-07T02:22:38.022Z,13.45
2023-04-07T02:23:39.773Z,11.40
2023-04-07T02:24:42.208Z,13.18
2023-04-07T02:25:44.030Z,11.90
2023-04-07T02:26:46.413Z,13.13
2023-04-07T02:28:49.944Z,11.98
2023-04-07T02:29:51.794Z,13.10
2023-04-07T02:30:53.574Z,14.10
2023-04-07T02:31:56.174Z,12.70
2023-04-07T02:32:58.587Z,12.90
2023-04-07T02:34:00.514Z,14.70
2023-04-07T02:35:02.335Z,13.23
2023-04-07T02:36:04.168Z,12.40
2023-04-07T02:37:05.982Z,13.70
2023-04-07T02:38:07.835Z,10.70
2023-04-07T02:39:09.684Z,13.43
2023-04-07T02:40:11.643Z,12.35
2023-04-07T02:41:13.389Z,13.40
2023-04-07T02:42:15.109Z,14.65
2023-04-07T02:43:18.019Z,14.80
2023-04-07T02:44:19.801Z,12.15
2023-04-07T02:45:21.638Z,13.82
2023-04-07T02:48:27.099Z,15.15
2023-04-07T02:49:28.784Z,13.18
2023-04-07T02:50:30.555Z,13.25
2023-04-07T02:51:32.283Z,12.23
2023-04-07T02:52:34.039Z,14.07
2023-04-07T02:53:36.160Z,15.27
2023-04-07T02:54:37.894Z,12.07
2023-04-07T02:55:39.527Z,13.35
2023-04-07T02:56:41.277Z,15.57
2023-04-07T02:57:43.057Z,11.38
2023-04-07T02:58:44.992Z,16.70
2023-04-07T02:59:46.723Z,14.80
2023-04-07T03:00:49.647Z,13.43
2023-04-07T03:01:52.539Z,14.57
2023-04-07T03:02:54.488Z,11.50
2023-04-07T03:03:56.621Z,14.30
2023-04-07T03:04:58.628Z,15.07
2023-04-07T03:06:00.464Z,13.90
2023-04-07T03:07:02.300Z,11.40
2023-04-07T03:08:04.098Z,14.23
2023-04-07T03:09:05.910Z,13.95
2023-04-07T03:10:07.892Z,16.65
2023-04-07T03:11:09.715Z,13.35
2023-04-07T03:12:11.547Z,11.63
2023-04-07T03:13:16.619Z,12.07
2023-04-07T03:14:18.406Z,15.18
2023-04-07T03:15:20.238Z,14.95
2023-04-07T03:16:22.098Z,17.98
2023-04-07T03:17:23.941Z,11.60
2023-04-07T03:18:25.744Z,11.57
2023-04-07T03:19:27.699Z,11.80
2023-04-07T03:20:31.251Z,13.63
2023-04-07T03:21:32.957Z,13.63
2023-04-07T03:23:36.481Z,14.15
2023-04-07T03:24:39.956Z,11.65
2023-04-07T03:25:42.046Z,15.98
2023-04-07T03:26:44.026Z,12.95
2023-04-07T03:27:45.709Z,16.88
2023-04-07T03:28:47.578Z,11.68
2023-04-07T03:29:51.575Z,13.23
2023-04-07T03:30:53.401Z,14.15
2023-04-07T03:31:55.237Z,12.20
2023-04-07T03:32:57.027Z,16.48
2023-04-07T03:33:58.774Z,15.27
2023-04-07T03:35:00.518Z,13.25
2023-04-07T03:36:02.294Z,14.45
2023-04-07T03:37:04.085Z,14.77
2023-04-07T03:38:05.862Z,14.65
2023-04-07T03:39:07.606Z,16.90
2023-04-07T03:40:09.628Z,16.90
2023-04-07T03:41:11.346Z,12.32
2023-04-07T03:42:13.216Z,14.88
2023-04-07T03:43:16.064Z,14.60
2023-04-07T03:44:17.876Z,15.30
2023-04-07T03:45:19.826Z,15.40
2023-04-07T03:46:21.745Z,14.90
2023-04-07T03:47:23.836Z,14.60
2023-04-07T03:48:27.440Z,16.48
2023-04-07T03:49:31.778Z,14.32
2023-04-07T03:50:33.597Z,14.18
2023-04-07T03:51:35.335Z,14.23
2023-04-07T03:52:37.182Z,13.93
2023-04-07T03:53:38.980Z,15.05
2023-04-07T03:54:40.771Z,12.40
2023-04-07T03:55:43.195Z,16.48
2023-04-07T03:56:45.121Z,14.63
2023-04-07T03:57:47.192Z,14.05
2023-04-07T03:58:49.567Z,16.45
2023-04-07T03:59:51.584Z,13.32
2023-04-07T04:00:53.424Z,13.57
2023-04-07T04:01:56.035Z,15.27
2023-04-07T04:02:58.116Z,16.95
2023-04-07T04:04:00.175Z,12.02
2023-04-07T04:05:02.200Z,14.40
2023-04-07T04:06:04.119Z,14.98
2023-04-07T04:07:05.864Z,13.45
2023-04-07T04:08:07.702Z,14.05
2023-04-07T04:09:09.565Z,15.00
2023-04-07T04:10:11.768Z,12.20
2023-04-07T04:11:13.745Z,12.45
2023-04-07T04:12:15.644Z,12.95
2023-04-07T04:13:17.419Z,13.73
2023-04-07T04:14:19.122Z,12.07
2023-04-07T04:15:20.946Z,12.88
2023-04-07T04:16:22.899Z,14.40
2023-04-07T04:17:25.860Z,15.27
2023-04-07T04:18:27.687Z,14.20
2023-04-07T04:19:29.464Z,14.02
2023-04-07T04:20:31.311Z,14.57
2023-04-07T04:21:33.080Z,18.02
2023-04-07T04:22:34.970Z,16.67
2023-04-07T04:23:36.745Z,13.48
2023-04-07T04:24:38.520Z,15.27
2023-04-07T04:25:41.120Z,15.50
2023-04-07T04:26:42.974Z,12.48
2023-04-07T04:27:44.794Z,13.15
2023-04-07T04:28:46.490Z,15.80
2023-04-07T04:29:49.049Z,16.75
2023-04-07T04:30:50.765Z,12.88
2023-04-07T04:31:52.430Z,13.48
2023-04-07T04:32:54.134Z,17.23
2023-04-07T04:33:56.195Z,14.68
2023-04-07T04:34:57.792Z,14.98
2023-04-07T04:35:59.376Z,13.27
2023-04-07T04:37:01.336Z,13.70
2023-04-07T04:38:02.992Z,15.88
2023-04-07T04:39:04.562Z,13.23
2023-04-07T04:40:08.665Z,12.98
2023-04-07T04:41:10.264Z,15.15
2023-04-07T04:42:12.048Z,12.05
2023-04-07T04:43:13.602Z,12.50
2023-04-07T04:44:15.200Z,14.55
2023-04-07T04:45:16.867Z,14.07
2023-04-07T04:46:18.463Z,14.80
2023-04-07T04:47:20.190Z,14.40
2023-04-07T04:48:22.030Z,11.48
2023-04-07T04:49:23.645Z,14.23
2023-04-07T04:50:25.210Z,12.02
2023-04-07T04:51:27.330Z,14.45
2023-04-07T04:52:29.088Z,12.65
2023-04-07T04:53:30.782Z,16.42
2023-04-07T04:54:33.250Z,13.65
2023-04-07T04:55:34.878Z,16.77
2023-04-07T04:56:36.735Z,13.45
2023-04-07T04:57:38.684Z,16.48
2023-04-07T04:58:46.707Z,12.77
2023-04-07T04:59:48.349Z,13.18
2023-04-07T05:00:49.946Z,13.88
2023-04-07T05:01:51.660Z,15.38
2023-04-07T05:02:53.581Z,12.88
2023-04-07T05:03:55.782Z,16.33
2023-04-07T05:04:57.701Z,11.75
2023-04-07T05:05:59.281Z,16.52
2023-04-07T05:08:02.508Z,16.08
2023-04-07T05:09:04.247Z,13.43
2023-04-07T05:10:06.914Z,16.08
2023-04-07T05:11:08.684Z,14.52
2023-04-07T05:12:10.426Z,15.65
2023-04-07T05:13:12.105Z,15.45
2023-04-07T05:14:13.744Z,12.57
2023-04-07T05:15:15.746Z,14.65
2023-04-07T05:16:17.534Z,17.55
2023-04-07T05:17:19.169Z,14.95
2023-04-07T05:18:20.878Z,16.45
2023-04-07T05:19:22.472Z,15.48
2023-04-07T05:20:24.024Z,16.95
2023-04-07T05:21:26.908Z,14.63
2023-04-07T05:22:28.503Z,15.20
2023-04-07T05:23:30.126Z,16.13
2023-04-07T05:25:33.456Z,14.93
2023-04-07T05:26:35.038Z,17.45
2023-04-07T05:27:36.624Z,18.67
2023-04-07T05:28:38.254Z,18.63
2023-04-07T05:30:41.394Z,13.57
2023-04-07T05:31:43.049Z,18.60
2023-04-07T05:32:44.730Z,17.60
2023-04-07T05:33:46.706Z,18.17
2023-04-07T05:34:48.308Z,15.90
2023-04-07T05:35:49.902Z,15.77
2023-04-07T05:36:51.555Z,15.55
2023-04-07T05:37:53.150Z,16.02
2023-04-07T06:33:33.562Z,21.60
2023-04-07T06:34:35.130Z,17.55
2023-04-07T06:35:37.040Z,20.58
2023-04-07T06:36:38.602Z,19.15
2023-04-07T06:37:40.618Z,18.50
2023-04-07T06:38:42.168Z,18.60
2023-04-07T06:39:43.817Z,19.70
2023-04-07T06:40:45.475Z,16.60
2023-04-07T06:41:47.235Z,21.75
2023-04-07T06:42:48.847Z,16.30
2023-04-07T06:43:53.103Z,21.08
2023-04-07T06:44:54.755Z,20.85
2023-04-07T06:45:56.417Z,18.55
2023-04-07T06:46:57.997Z,19.65
2023-04-07T06:47:59.571Z,16.08
2023-04-07T06:49:01.410Z,15.80
2023-04-07T06:50:03.054Z,17.38
2023-04-07T06:51:04.752Z,19.60
2023-04-07T06:52:06.582Z,17.92
2023-04-07T06:53:08.180Z,18.05
2023-04-07T06:54:13.176Z,18.38
2023-04-07T06:55:14.886Z,16.30
2023-04-07T06:56:16.754Z,16.60
2023-04-07T06:58:19.889Z,15.90
2023-04-07T06:59:21.453Z,16.05
2023-04-07T07:00:27.181Z,20.88
2023-04-07T07:01:29.105Z,16.35
2023-04-07T07:02:30.981Z,14.25
2023-04-07T07:03:32.872Z,13.32
2023-04-07T07:04:34.884Z,15.35
2023-04-07T07:05:36.500Z,14.10
2023-04-07T07:06:38.187Z,14.77
2023-04-07T07:07:39.845Z,15.15
2023-04-07T07:08:41.477Z,16.25
2023-04-07T07:09:43.019Z,17.38
2023-04-07T07:10:44.640Z,14.52
2023-04-07T07:11:46.452Z,14.15
2023-04-07T07:12:48.176Z,13.02
2023-04-07T07:13:50.054Z,14.23
2023-04-07T07:14:51.795Z,13.55
2023-04-07T07:15:53.441Z,11.60
2023-04-07T07:16:55.066Z,14.88
2023-04-07T07:17:56.978Z,13.23
2023-04-07T07:18:58.636Z,14.63
2023-04-07T07:20:00.263Z,15.23
2023-04-07T07:21:01.848Z,12.77
2023-04-07T07:22:06.231Z,12.85
2023-04-07T07:23:07.878Z,13.38
2023-04-07T07:24:09.576Z,12.23
2023-04-07T07:25:11.388Z,14.23
2023-04-07T07:26:13.023Z,12.02
2023-04-07T07:27:14.628Z,12.60
2023-04-07T07:28:16.472Z,12.23
2023-04-07T07:52:56.423Z,15.82
2023-04-07T07:53:57.974Z,13.52
2023-04-07T08:42:18.630Z,19.02
2023-04-07T08:43:20.423Z,14.57
2023-04-07T08:44:22.817Z,12.13
2023-04-07T08:45:25.325Z,14.70
2023-04-07T08:46:27.599Z,12.88
2023-04-07T08:47:30.981Z,13.10
2023-04-07T08:48:35.580Z,13.02
2023-04-07T08:49:38.508Z,13.90
2023-04-07T08:50:40.516Z,13.80
2023-04-07T08:51:45.794Z,13.60
2023-04-07T08:52:51.535Z,14.75
2023-04-07T08:53:53.947Z,14.02
2023-04-07T08:54:56.393Z,12.75
2023-04-07T08:55:58.292Z,14.30
2023-04-07T08:56:59.966Z,12.13
2023-04-07T08:58:02.247Z,14.30
2023-04-07T08:59:04.221Z,13.15
2023-04-07T09:00:06.579Z,13.38
2023-04-07T09:01:09.441Z,12.98
2023-04-07T09:02:11.329Z,14.10
2023-04-07T09:03:13.212Z,14.18
2023-04-07T09:04:15.026Z,13.40
2023-04-07T09:05:16.761Z,14.15
2023-04-07T09:06:18.466Z,11.45
2023-04-07T09:07:20.047Z,12.73
2023-04-07T09:08:21.630Z,13.55
2023-04-07T09:09:24.577Z,11.77
2023-04-07T09:10:26.316Z,13.00
2023-04-07T09:11:28.589Z,11.68
2023-04-07T09:12:30.880Z,11.68
2023-04-07T09:13:33.648Z,19.73
2023-04-07T09:14:35.427Z,13.45
2023-04-07T09:15:38.763Z,11.20
2023-04-07T09:16:40.738Z,11.65
2023-04-07T09:17:42.460Z,10.80
2023-04-07T09:18:44.110Z,13.45
2023-04-07T09:19:45.882Z,11.82
2023-04-07T09:20:58.011Z,12.60
2023-04-07T09:21:59.734Z,12.45
2023-04-07T09:23:01.304Z,12.95
2023-04-07T09:24:20.278Z,13.30
2023-04-07T09:25:27.397Z,11.68
2023-04-07T09:26:31.054Z,11.07
2023-04-07T09:27:32.985Z,11.80
2023-04-07T09:28:47.546Z,14.38
2023-04-07T09:29:49.171Z,12.52
2023-04-07T09:30:54.751Z,12.82
2023-04-07T09:31:57.985Z,11.98
2023-04-07T09:33:00.791Z,12.38
2023-04-07T09:34:03.331Z,13.60
2023-04-07T09:35:05.102Z,10.57
2023-04-07T09:36:07.605Z,12.18
2023-04-07T09:37:12.174Z,11.05
2023-04-07T09:38:14.039Z,11.52
2023-04-07T09:39:15.820Z,14.02
2023-04-07T09:40:27.344Z,13.52
2023-04-07T09:41:28.956Z,11.23
2023-04-07T09:42:34.961Z,13.40
2023-04-07T09:55:58.525Z,11.52
2023-04-07T09:57:01.683Z,12.43
2023-04-07T09:58:04.372Z,13.68
2023-04-07T09:59:06.231Z,12.52
2023-04-07T10:00:08.555Z,15.00
2023-04-07T10:01:10.946Z,11.48
2023-04-07T10:02:12.848Z,14.15
2023-04-07T10:03:15.586Z,14.32
2023-04-07T10:04:17.913Z,12.63
2023-04-07T10:05:21.738Z,13.25
2023-04-07T10:06:23.593Z,13.65
2023-04-07T10:07:25.763Z,11.70
2023-04-07T10:08:27.929Z,12.32
2023-04-07T11:37:38.781Z,9.35
2023-04-07T11:38:40.619Z,9.05
2023-04-07T11:39:42.767Z,9.48
2023-04-07T11:40:44.411Z,9.45
2023-04-07T11:41:47.169Z,10.05
2023-04-07T11:42:48.867Z,9.85
2023-04-07T11:44:03.471Z,9.43
2023-04-07T11:45:07.829Z,14.25
2023-04-07T11:46:10.115Z,10.02
2023-04-07T11:47:12.108Z,9.43
2023-04-07T11:48:26.698Z,10.63
2023-04-07T11:49:28.877Z,10.15
2023-04-07T11:50:41.354Z,9.15
2023-04-07T11:51:44.028Z,9.00
2023-04-07T11:52:46.645Z,8.60
2023-04-07T11:53:48.588Z,8.90
2023-04-07T11:54:50.725Z,10.15
2023-04-07T11:55:59.223Z,8.95
2023-04-07T11:57:01.417Z,8.20
2023-04-07T11:58:06.719Z,8.63
2023-04-07T11:59:08.385Z,9.02
2023-04-07T12:00:11.844Z,9.82
2023-04-07T12:01:14.236Z,7.63
2023-04-07T12:02:36.220Z,9.30
2023-04-07T12:03:38.510Z,7.00
2023-04-07T12:04:55.711Z,8.98
2023-04-07T12:05:57.410Z,7.63
2023-04-07T12:07:11.896Z,6.95
2023-04-07T12:08:14.480Z,9.68
2023-04-07T12:09:32.696Z,8.07
2023-04-07T12:10:35.380Z,7.78
2023-04-07T12:11:37.472Z,8.25
2023-04-07T12:12:39.718Z,7.60
2023-04-07T12:13:41.664Z,8.45
2023-04-07T12:14:43.285Z,8.63
2023-04-07T12:15:44.855Z,8.50
2023-04-07T12:16:47.109Z,9.00
2023-04-07T12:17:49.133Z,11.30
2023-04-07T12:18:53.753Z,8.90
2023-04-07T12:19:55.515Z,7.35
2023-04-07T12:20:59.096Z,7.55
2023-04-07T12:22:00.888Z,8.93
2023-04-07T12:23:02.595Z,9.23
2023-04-07T12:24:04.273Z,8.32
2023-04-07T12:25:06.437Z,12.07
2023-04-07T12:26:08.288Z,7.97
2023-04-07T12:27:10.341Z,8.45
2023-04-07T12:30:15.345Z,8.57
2023-04-07T12:31:17.015Z,9.32
2023-04-07T12:32:18.741Z,8.38
2023-04-07T12:33:20.414Z,8.30
2023-04-07T12:34:22.173Z,8.63
2023-04-07T12:35:24.126Z,10.90
2023-04-07T12:36:27.700Z,8.95
2023-04-07T12:37:29.442Z,9.02
2023-04-07T12:38:31.075Z,10.18
2023-04-07T12:39:33.705Z,7.40
2023-04-07T12:40:36.133Z,8.98
2023-04-07T12:41:38.933Z,10.07
2023-04-07T12:42:40.588Z,11.45
2023-04-07T12:43:42.220Z,9.63
2023-04-07T12:44:43.843Z,8.93
2023-04-07T12:45:45.591Z,9.88
2023-04-07T12:46:47.339Z,9.20
2023-04-07T12:47:48.974Z,7.80
2023-04-07T12:48:51.624Z,8.80
2023-04-07T12:49:53.255Z,8.77
2023-04-07T12:50:54.975Z,8.65
2023-04-07T12:51:56.792Z,8.23
2023-04-07T12:53:03.719Z,7.88
2023-04-07T12:54:05.418Z,6.43
2023-04-07T12:55:07.150Z,6.60
2023-04-07T12:56:08.906Z,8.07
2023-04-07T12:57:10.546Z,6.97
2023-04-07T12:58:12.251Z,7.93
2023-04-07T12:59:14.205Z,7.38
2023-04-07T13:00:16.046Z,7.72
2023-04-07T13:01:17.750Z,6.95
2023-04-07T13:02:19.944Z,9.00
2023-04-07T13:03:22.009Z,9.98
2023-04-07T13:04:25.143Z,7.68
2023-04-07T13:05:27.560Z,8.70
2023-04-07T13:06:29.230Z,8.25
2023-04-07T13:07:30.899Z,9.45
2023-04-07T13:08:32.456Z,10.73
2023-04-07T13:09:34.516Z,8.38
2023-04-07T13:10:36.512Z,10.43
2023-04-07T13:11:38.161Z,9.70
2023-04-07T13:12:40.215Z,9.18
2023-04-07T13:13:41.824Z,11.68
2023-04-07T13:14:56.963Z,8.68
2023-04-07T13:16:02.045Z,8.60
2023-04-07T13:17:03.755Z,8.43
2023-04-07T13:18:05.662Z,9.73
2023-04-07T13:19:09.466Z,9.00
2023-04-07T13:20:11.331Z,8.27
2023-04-07T13:21:43.067Z,9.43
2023-04-07T13:22:35.995Z,9.02
2023-04-07T13:23:43.198Z,8.35
2023-04-07T13:24:45.612Z,8.98
2023-04-07T13:25:47.346Z,9.25
2023-04-07T13:26:49.160Z,10.68
2023-04-07T13:27:50.875Z,8.82
2023-04-07T13:28:52.464Z,8.02
2023-04-07T13:29:54.120Z,9.32
2023-04-07T13:30:55.904Z,10.07
2023-04-07T13:32:07.297Z,9.50
2023-04-07T13:33:09.425Z,8.70
2023-04-07T13:34:11.451Z,8.45
2023-04-07T13:55:50.653Z,10.15
2023-04-07T14:58:44.672Z,9.13
2023-04-07T14:59:47.501Z,10.80
2023-04-07T15:00:49.226Z,9.77
2023-04-07T15:01:51.458Z,10.52
2023-04-07T15:02:54.696Z,11.63
2023-04-07T15:03:58.678Z,11.70
2023-04-07T15:05:00.481Z,9.63
2023-04-07T15:06:07.596Z,10.27
2023-04-07T15:07:09.313Z,9.85
2023-04-07T15:08:11.165Z,13.15
2023-04-07T15:09:12.771Z,9.77
2023-04-07T15:10:14.530Z,11.15
2023-04-07T15:11:16.269Z,11.27
2023-04-07T15:12:18.165Z,9.60
2023-04-07T15:13:19.849Z,9.60
2023-04-07T15:14:21.432Z,9.88
2023-04-07T15:15:24.407Z,9.80
2023-04-07T15:16:26.112Z,10.35
2023-04-07T15:17:40.203Z,10.95
2023-04-07T15:18:45.596Z,12.43
2023-04-07T15:19:47.557Z,10.13
2023-04-07T15:20:49.216Z,11.40
2023-04-07T15:21:50.878Z,9.85
2023-04-07T15:22:52.497Z,11.05
2023-04-07T15:23:54.089Z,10.95
2023-04-07T15:24:55.600Z,10.00
2023-04-07T15:25:57.985Z,10.75
2023-04-07T15:26:59.661Z,10.07
2023-04-07T15:28:01.248Z,9.82
2023-04-07T15:29:02.836Z,10.85
2023-04-07T15:30:04.535Z,9.35
2023-04-07T15:31:10.166Z,11.52
2023-04-07T15:32:11.968Z,10.32
2023-04-07T15:33:13.957Z,10.27
2023-04-07T15:34:15.856Z,10.05
2023-04-07T15:35:17.528Z,11.35
2023-04-07T15:36:19.188Z,11.15
2023-04-07T15:37:20.828Z,12.88
2023-04-07T15:38:22.589Z,8.88
2023-04-07T15:39:24.294Z,11.57
2023-04-07T15:40:25.923Z,10.85
2023-04-07T15:41:27.539Z,9.48
2023-04-07T15:42:29.213Z,9.93
2023-04-07T15:43:30.827Z,9.43
2023-04-07T15:44:39.590Z,9.60
2023-04-07T15:45:42.239Z,11.50
2023-04-07T15:46:43.906Z,10.98
2023-04-07T15:47:46.115Z,9.45
2023-04-07T15:48:48.148Z,11.20
2023-04-07T15:49:49.754Z,8.35
2023-04-07T15:50:52.836Z,11.00
2023-04-07T15:51:54.521Z,13.30
2023-04-07T15:52:56.141Z,12.02
2023-04-07T15:53:57.740Z,12.13
2023-04-07T15:54:59.340Z,11.02
2023-04-07T15:56:01.019Z,11.60
2023-04-07T15:57:02.714Z,12.40
2023-04-07T15:58:04.619Z,10.02
2023-04-07T15:59:06.349Z,12.30
2023-04-07T16:00:08.564Z,11.88
2023-04-07T16:01:10.244Z,10.40
2023-04-07T16:02:13.721Z,11.25
2023-04-07T16:03:16.222Z,13.07
2023-04-07T16:04:19.434Z,10.07
2023-04-07T16:05:21.200Z,13.88
2023-04-07T16:06:22.968Z,14.43
2023-04-07T16:07:24.486Z,10.48
2023-04-07T16:08:26.218Z,13.55
2023-04-07T16:09:28.777Z,15.55
2023-04-07T16:10:30.545Z,12.73
2023-04-07T16:11:32.116Z,11.68
2023-04-07T16:12:34.552Z,10.18
2023-04-07T16:13:36.423Z,9.65
2023-04-07T16:14:38.112Z,11.00
2023-04-07T16:15:41.064Z,12.55
2023-04-07T16:16:44.757Z,10.83
2023-04-07T16:17:47.404Z,10.85
2023-04-07T16:18:49.382Z,13.75
2023-04-07T16:19:51.147Z,9.82
2023-04-07T16:20:52.784Z,11.63
2023-04-07T16:21:54.955Z,9.57
2023-04-07T16:22:56.557Z,10.25
2023-04-07T16:23:58.214Z,12.07
2023-04-07T16:24:59.848Z,11.05
2023-04-07T16:26:01.465Z,13.95
2023-04-07T16:27:04.458Z,12.82
2023-04-07T16:28:06.342Z,10.30
2023-04-07T16:29:07.986Z,12.05
2023-04-07T16:30:11.193Z,11.80
2023-04-07T16:31:12.831Z,13.68
2023-04-07T16:32:14.545Z,11.07
2023-04-07T16:33:16.192Z,11.35
2023-04-07T16:34:17.800Z,11.75
2023-04-07T16:35:19.634Z,9.52
2023-04-07T16:36:21.478Z,16.45
2023-04-07T16:37:23.065Z,12.82
2023-04-07T16:38:24.817Z,13.88
2023-04-07T16:39:28.910Z,10.52
2023-04-07T16:40:31.287Z,10.73
2023-04-07T16:41:32.871Z,10.93
2023-04-07T16:42:34.568Z,11.93
2023-04-07T16:43:36.169Z,9.75
2023-04-07T16:44:37.840Z,10.97
2023-04-07T16:45:39.425Z,11.73
2023-04-07T16:46:41.040Z,12.07
2023-04-07T16:47:44.637Z,12.77
2023-04-07T16:48:46.614Z,10.63
2023-04-07T16:49:48.256Z,10.68
2023-04-07T16:50:49.841Z,11.82
2023-04-07T16:51:51.524Z,11.02
2023-04-07T16:52:53.183Z,11.38
2023-04-07T16:53:55.142Z,17.42
2023-04-07T16:54:57.695Z,14.25
2023-04-07T16:55:59.274Z,13.48
2023-04-07T16:57:01.118Z,14.80
2023-04-07T16:58:02.804Z,12.52
2023-04-07T16:59:04.417Z,12.55
2023-04-07T17:26:53.753Z,11.32
2023-04-07T17:27:57.398Z,11.10
2023-04-07T17:28:59.607Z,10.07
2023-04-07T17:30:01.345Z,11.50
2023-04-07T17:31:03.205Z,11.23
2023-04-07T17:32:05.022Z,11.88
2023-04-07T17:33:08.481Z,10.60
2023-04-07T17:34:10.475Z,9.65
2023-04-07T17:35:12.169Z,12.68
2023-04-07T17:36:14.405Z,11.25
2023-04-07T17:37:16.028Z,13.00
2023-04-07T17:38:17.646Z,9.98
2023-04-07T17:39:19.286Z,9.82
2023-04-07T17:40:21.068Z,10.95
2023-04-07T17:41:23.016Z,11.85
2023-04-07T17:42:24.611Z,12.52
2023-04-07T17:43:26.320Z,14.07
2023-04-07T17:44:28.059Z,13.43
2023-04-07T17:45:29.698Z,13.70
2023-04-07T17:46:31.423Z,12.05
2023-04-07T17:47:33.131Z,11.93
2023-04-07T17:48:34.675Z,16.67
2023-04-07T17:49:36.281Z,14.38
2023-04-07T17:50:38.043Z,11.02
2023-04-07T17:59:53.433Z,24.95
2023-04-07T18:00:55.015Z,21.50
2023-04-07T18:01:57.091Z,13.68
2023-04-07T18:02:59.183Z,13.57
2023-04-07T18:04:00.979Z,14.50
2023-04-07T18:05:02.604Z,10.68
2023-04-07T18:06:04.829Z,20.52
2023-04-07T18:07:07.050Z,14.30
2023-04-07T18:08:08.607Z,16.02
2023-04-07T18:09:10.387Z,19.15
2023-04-07T18:10:12.597Z,16.10
2023-04-07T18:11:14.644Z,15.10
2023-04-07T18:12:16.239Z,15.82
2023-04-07T18:13:18.753Z,19.95
2023-04-07T18:14:20.303Z,23.98
2023-04-07T18:15:21.898Z,19.90
2023-04-07T18:16:26.042Z,16.90
2023-04-07T18:17:27.713Z,17.52
2023-04-07T18:18:30.353Z,14.80
2023-04-07T18:19:33.159Z,17.67
2023-04-07T18:20:35.064Z,16.02
2023-04-07T18:21:36.661Z,24.73
2023-04-07T18:22:38.381Z,28.13
2023-04-07T18:30:59.664Z,12.00
2023-04-07T18:32:01.251Z,13.48
2023-04-07T19:11:12.235Z,15.25
2023-04-07T19:12:13.943Z,16.70
2023-04-07T19:13:17.958Z,15.63
2023-04-07T19:14:19.670Z,16.98
2023-04-07T19:15:21.436Z,20.20
2023-04-07T19:16:24.925Z,18.77
2023-04-07T19:17:27.148Z,16.23
2023-04-07T19:18:29.435Z,22.67
2023-04-07T19:19:31.106Z,15.13
2023-04-07T19:27:49.243Z,13.07
2023-04-07T19:28:50.845Z,16.10
2023-04-07T19:29:52.471Z,27.30
2023-04-07T19:30:54.386Z,17.67
2023-04-07T19:31:57.471Z,16.40
2023-04-07T19:32:59.185Z,16.65
2023-04-07T19:34:00.779Z,30.73
2023-04-07T19:35:02.455Z,31.35
2023-04-07T19:36:04.572Z,18.90
2023-04-07T19:37:06.237Z,14.18
2023-04-07T19:38:07.856Z,12.50
2023-04-07T19:39:09.468Z,12.48
2023-04-07T19:40:11.705Z,14.32
2023-04-07T19:41:13.345Z,12.50
2023-04-07T19:42:16.050Z,13.32
2023-04-07T19:43:17.890Z,14.98
2023-04-07T19:44:19.576Z,12.80
2023-04-07T19:45:21.652Z,11.57
2023-04-07T19:46:23.316Z,10.68
2023-04-07T19:47:25.254Z,11.55
2023-04-07T19:48:27.002Z,12.95
2023-04-07T19:49:28.644Z,15.93
2023-04-07T19:50:30.366Z,15.98
2023-04-07T19:51:31.967Z,16.98
2023-04-07T19:52:33.566Z,19.38
2023-04-07T19:53:35.126Z,14.00
2023-04-07T19:54:37.091Z,13.55
2023-04-07T19:55:38.669Z,14.68
2023-04-07T19:56:40.371Z,15.75
2023-04-07T19:57:42.184Z,13.10
2023-04-07T19:58:43.876Z,12.80
2023-04-07T19:59:45.488Z,11.02
2023-04-07T20:00:50.055Z,10.38
2023-04-07T20:01:52.241Z,14.82
2023-04-07T20:02:54.100Z,12.23
2023-04-07T20:03:56.019Z,15.23
2023-04-07T20:04:57.773Z,11.90
2023-04-07T20:05:59.903Z,12.85
2023-04-07T20:07:01.703Z,12.95
2023-04-07T20:08:03.433Z,12.77
2023-04-07T20:09:05.042Z,13.27
2023-04-07T20:10:06.963Z,12.45
2023-04-07T20:11:11.622Z,15.27
2023-04-07T20:12:14.781Z,11.60
2023-04-07T20:13:16.397Z,13.88
2023-04-07T20:14:18.053Z,12.07
2023-04-07T20:15:21.284Z,14.95
2023-04-07T20:16:23.028Z,15.43
2023-04-07T20:17:24.738Z,12.05
2023-04-07T20:18:28.449Z,11.48